createdAt,value
2017-07-16T19:03:59.891Z,1765
2017-07-16T19:05:02.242Z,2395
2017-07-16T19:06:04.585Z,2295
2017-07-16T19:07:06.913Z,2530
2017-07-16T19:08:09.256Z,2540
2017-07-16T19:09:12.197Z,2540
2017-07-16T19:10:14.536Z,2040
2017-07-16T19:11:16.864Z,1655
2017-07-16T19:12:19.192Z,1660
2017-07-16T19:13:21.569Z,2005
2017-07-16T19:14:26.398Z,3130
2017-07-16T19:15:28.740Z,3570
2017-07-16T19:16:31.104Z,2945
2017-07-16T19:17:33.462Z,2770
2017-07-16T19:18:35.826Z,2790
2017-07-16T19:19:38.991Z,4680
2017-07-16T19:20:41.344Z,2540
2017-07-16T19:21:43.684Z,2840
2017-07-16T19:22:46.015Z,1905
2017-07-16T19:23:48.400Z,2320
2017-07-16T19:24:53.240Z,2525
2017-07-16T19:25:55.582Z,2065
2017-07-16T19:26:57.912Z,1780
2017-07-16T19:28:00.269Z,2100
2017-07-16T19:29:02.849Z,1965
2017-07-16T19:30:05.782Z,2875
2017-07-16T19:31:08.152Z,4950
2017-07-16T19:32:10.491Z,1775
2017-07-16T19:33:12.854Z,2155
2017-07-16T19:34:15.215Z,2200
2017-07-16T19:35:18.165Z,2120
2017-07-16T19:36:20.498Z,1715
2017-07-16T19:37:22.857Z,1845
2017-07-16T19:38:25.225Z,2245
2017-07-16T19:39:27.572Z,2760
2017-07-16T19:40:30.516Z,1745
2017-07-16T19:41:32.844Z,1880
2017-07-16T19:42:35.185Z,2115
2017-07-16T19:43:37.519Z,2325
2017-07-16T19:44:40.081Z,2135
2017-07-16T19:45:43.238Z,1975
2017-07-16T19:46:45.597Z,2430
2017-07-16T19:47:47.937Z,2275
2017-07-16T19:48:50.304Z,2585
2017-07-16T19:49:52.649Z,2015
2017-07-16T19:50:55.617Z,2090
2017-07-16T19:51:57.982Z,1640
2017-07-16T19:53:00.351Z,1565
2017-07-16T19:54:02.712Z,1520
2017-07-16T19:55:05.278Z,1405
2017-07-16T19:56:08.244Z,1495
2017-07-16T19:57:10.610Z,1275
2017-07-16T19:58:12.980Z,1090
2017-07-16T19:59:15.344Z,1205
2017-07-16T20:00:17.706Z,1235
2017-07-16T20:01:20.677Z,1340
2017-07-16T20:02:23.241Z,1530
2017-07-16T20:03:25.607Z,1585
2017-07-16T20:04:27.963Z,1480
2017-07-16T20:05:30.304Z,1450
2017-07-16T20:06:35.165Z,1400
2017-07-16T20:07:37.496Z,1160
2017-07-16T20:08:39.830Z,1225
2017-07-16T20:09:42.198Z,1305
2017-07-16T20:10:44.554Z,1290
2017-07-16T20:11:47.509Z,1300
2017-07-16T20:12:49.850Z,1240
2017-07-16T20:13:52.217Z,1120
2017-07-16T20:14:54.582Z,1015
2017-07-16T20:15:56.913Z,1010
2017-07-16T20:16:59.882Z,990
2017-07-16T20:18:02.442Z,1000
2017-07-16T20:19:04.811Z,1000
2017-07-16T20:20:07.173Z,960
2017-07-16T20:21:09.517Z,1015
2017-07-16T20:22:14.383Z,1075
2017-07-16T20:23:16.745Z,950
2017-07-16T20:24:19.305Z,1105
2017-07-16T20:25:21.648Z,1185
2017-07-16T20:26:24.018Z,1130
2017-07-16T20:27:26.946Z,1020
2017-07-16T20:28:29.303Z,955
2017-07-16T20:29:31.669Z,985
2017-07-16T20:30:34.006Z,955
2017-07-16T20:31:36.350Z,930
2017-07-16T20:32:39.314Z,925
2017-07-16T20:33:41.677Z,865
2017-07-16T20:34:44.026Z,855
2017-07-16T20:35:46.374Z,740
2017-07-16T20:36:48.936Z,720
2017-07-16T20:37:51.899Z,765
2017-07-16T20:38:54.238Z,760
2017-07-16T20:39:56.583Z,815
2017-07-16T20:40:58.919Z,780
2017-07-16T20:42:01.286Z,745
2017-07-16T20:43:04.276Z,740
2017-07-16T20:44:06.818Z,805
2017-07-16T20:45:09.148Z,825
2017-07-16T20:46:11.513Z,730
2017-07-16T20:47:13.831Z,835
2017-07-16T20:48:17.147Z,795
2017-07-16T20:49:19.503Z,950
2017-07-16T20:50:21.858Z,890
2017-07-16T20:51:24.231Z,760
2017-07-16T20:52:26.582Z,775
2017-07-16T20:53:29.503Z,820
2017-07-16T20:54:31.822Z,915
2017-07-16T20:55:34.181Z,1000
2017-07-16T20:56:36.518Z,1000
2017-07-16T20:57:38.860Z,900
2017-07-16T20:58:43.727Z,1000
2017-07-16T20:59:46.074Z,865
2017-07-16T21:00:48.432Z,935
2017-07-16T21:01:50.766Z,1000
2017-07-16T21:02:53.130Z,965
2017-07-16T21:03:56.084Z,950
2017-07-16T21:04:58.437Z,845
2017-07-16T21:06:00.993Z,610
2017-07-16T21:07:03.327Z,790
2017-07-16T21:08:05.683Z,820
2017-07-16T21:09:08.619Z,680
2017-07-16T21:10:10.981Z,775
2017-07-16T21:11:13.340Z,930
2017-07-16T21:12:15.680Z,1000
2017-07-16T21:13:18.236Z,990
2017-07-16T21:14:23.148Z,885
2017-07-16T21:15:25.510Z,1015
2017-07-16T21:16:27.866Z,1105
2017-07-16T21:17:30.229Z,1030
2017-07-16T21:18:32.577Z,1005
2017-07-16T21:19:35.507Z,785
2017-07-16T21:20:37.837Z,840
2017-07-16T21:21:40.196Z,815
2017-07-16T21:22:42.557Z,880
2017-07-16T21:23:44.899Z,805
2017-07-16T21:24:47.832Z,650
2017-07-16T21:25:50.186Z,645
2017-07-16T21:26:52.511Z,865
2017-07-16T21:27:55.071Z,910
2017-07-16T21:28:57.628Z,915
2017-07-16T21:30:00.585Z,1000
2017-07-16T21:31:02.913Z,1010
2017-07-16T21:32:05.473Z,965
2017-07-16T21:33:07.809Z,1010
2017-07-16T21:34:10.138Z,1000
2017-07-16T21:35:13.097Z,920
2017-07-16T21:36:15.440Z,1015
2017-07-16T21:37:17.804Z,1010
2017-07-16T21:38:20.142Z,1115
2017-07-16T21:39:22.501Z,1245
2017-07-16T21:40:25.444Z,1265
2017-07-16T21:41:28.003Z,1250
2017-07-16T21:42:30.362Z,1030
2017-07-16T21:43:33.891Z,985
2017-07-16T21:44:36.251Z,1040
2017-07-16T21:45:39.197Z,1050
2017-07-16T21:46:41.544Z,1090
2017-07-16T21:47:43.906Z,1235
2017-07-16T21:48:46.266Z,1005
2017-07-16T21:49:48.625Z,880
2017-07-16T21:50:51.598Z,825
2017-07-16T21:51:53.948Z,930
2017-07-16T21:52:56.509Z,1020
2017-07-16T21:53:58.862Z,900
2017-07-16T21:55:01.194Z,725
2017-07-16T21:56:04.207Z,3050
2017-07-16T21:57:06.567Z,755
2017-07-16T21:58:08.921Z,850
2017-07-16T21:59:11.272Z,585
2017-07-16T22:00:13.632Z,2630
2017-07-16T22:01:16.597Z,1415
2017-07-16T22:02:18.956Z,2780
2017-07-16T22:03:21.511Z,2625
2017-07-16T22:04:23.855Z,2635
2017-07-16T22:05:26.423Z,2445
2017-07-16T22:06:29.377Z,760
2017-07-16T22:07:31.731Z,2430
2017-07-16T22:08:34.087Z,865
2017-07-16T22:09:36.451Z,2460
2017-07-16T22:10:38.782Z,755
2017-07-16T22:11:41.770Z,650
2017-07-16T22:12:44.134Z,745
2017-07-16T22:13:46.486Z,665
2017-07-16T22:14:48.818Z,715
2017-07-16T22:15:51.180Z,670
2017-07-16T22:16:54.109Z,560
2017-07-16T22:17:56.461Z,525
2017-07-16T22:18:58.787Z,485
2017-07-16T22:20:01.151Z,415
2017-07-16T22:21:03.714Z,395
2017-07-16T22:22:06.679Z,340
2017-07-16T22:23:10.198Z,285
2017-07-16T22:24:12.557Z,275
2017-07-16T22:25:14.915Z,300
2017-07-16T22:26:17.261Z,275
2017-07-16T22:27:20.141Z,280
2017-07-16T22:28:22.471Z,270
2017-07-16T22:29:24.813Z,245
2017-07-16T22:30:27.150Z,250
2017-07-16T22:31:29.477Z,250
2017-07-16T22:32:32.632Z,245
2017-07-16T22:33:34.955Z,230
2017-07-16T22:34:37.287Z,220
2017-07-16T22:35:39.645Z,250
2017-07-16T22:36:41.986Z,325
2017-07-16T22:37:46.844Z,370
2017-07-16T22:38:49.173Z,335
2017-07-16T22:39:51.527Z,285
2017-07-16T22:40:53.879Z,265
2017-07-16T22:41:56.200Z,270
2017-07-16T22:42:59.141Z,235
2017-07-16T22:44:01.498Z,210
2017-07-16T22:45:03.856Z,195
2017-07-16T22:46:06.195Z,190
2017-07-16T22:47:08.549Z,180
2017-07-16T22:48:11.510Z,180
2017-07-16T22:49:13.845Z,170
2017-07-16T22:50:16.180Z,165
2017-07-16T22:51:18.736Z,165
2017-07-16T22:52:21.079Z,160
2017-07-16T22:53:24.038Z,155
2017-07-16T22:54:26.567Z,150
2017-07-16T22:55:29.125Z,145
2017-07-16T22:56:31.482Z,140
2017-07-16T22:57:33.833Z,140
2017-07-16T22:58:36.806Z,145
2017-07-16T22:59:39.160Z,140
2017-07-16T23:00:41.522Z,130
2017-07-16T23:01:43.891Z,120
2017-07-16T23:02:46.211Z,110
2017-07-16T23:03:49.188Z,105
2017-07-16T23:04:51.543Z,100
2017-07-16T23:05:53.891Z,100
2017-07-16T23:06:56.215Z,110
2017-07-16T23:07:58.582Z,110
2017-07-16T23:09:03.613Z,105
2017-07-16T23:10:05.943Z,95
2017-07-16T23:11:08.276Z,95
2017-07-16T23:12:10.631Z,95
2017-07-16T23:13:12.963Z,90
2017-07-16T23:14:15.895Z,95
2017-07-16T23:15:18.255Z,95
2017-07-16T23:16:20.606Z,95
2017-07-16T23:17:22.944Z,95
2017-07-16T23:18:25.305Z,90
2017-07-16T23:19:28.247Z,90
2017-07-16T23:20:30.585Z,85
2017-07-16T23:21:32.918Z,85
2017-07-16T23:22:35.249Z,80
2017-07-16T23:23:37.602Z,80
2017-07-16T23:24:40.764Z,85
2017-07-16T23:25:43.116Z,85
2017-07-16T23:26:45.439Z,80
2017-07-16T23:27:47.794Z,85
2017-07-16T23:28:50.132Z,80
2017-07-16T23:29:53.289Z,75
2017-07-16T23:30:55.614Z,75
2017-07-16T23:31:57.963Z,70
2017-07-16T23:33:00.308Z,65
2017-07-16T23:34:02.639Z,70
2017-07-16T23:35:05.601Z,65
2017-07-16T23:36:07.954Z,60
2017-07-16T23:37:10.278Z,65
2017-07-16T23:38:12.607Z,65
2017-07-16T23:39:14.933Z,60
2017-07-16T23:41:22.305Z,60
2017-07-16T23:42:24.632Z,65
2017-07-16T23:43:26.975Z,55
2017-07-16T23:44:29.305Z,50
2017-07-16T23:45:32.269Z,50
2017-07-16T23:46:34.590Z,50
2017-07-16T23:47:36.907Z,45
2017-07-16T23:48:39.268Z,45
2017-07-16T23:49:41.621Z,40
2017-07-16T23:50:44.553Z,35
2017-07-16T23:51:46.872Z,30
2017-07-16T23:52:49.425Z,25
2017-07-16T23:53:51.781Z,20
2017-07-16T23:54:54.101Z,20
2017-07-16T23:55:57.052Z,20
2017-07-16T23:56:59.371Z,20
2017-07-16T23:58:01.721Z,15
2017-07-16T23:59:04.048Z,15
